Inez Cenac — WDI2520 — position and weather

sailwx.info

Track history (hours):
 
Tides and Currents Weather Stations Pressure Air Temp Water Temp Dewpoint Dewpoint Depression Visibility Wind Speed Wind Dir Waves Ship Positions

Inez Cenac

Owner: Cenac Marine Services, Houma, LA. More information available from US FCC via Universal Licensing System and Coast Guard Vessel Documentation Center.

Last reported at 2017-Nov-16 21:40 UTC. Time now 2017-Nov-21 23:22 UTC.
Position N 29°31' W 094°53'.

Length 22 m; draft 2.4 m.

Type: Tug. MMSI: 367679030.

Date/timePositionNaut miles runAvg speedWind from/ knotsBaromVisibWave heightAir tempDewpointWater temp
2017-Nov-16 21:40N 29°31' W 094°53'1 6.7
2017-Nov-16 21:30N 29°32' W 094°54'3 6.4
2017-Nov-16 21:00N 29°34' W 094°56'4 7.1
2017-Nov-16 20:30N 29°38' W 094°58'4 7.4
2017-Nov-16 20:00N 29°41' W 094°59'3 6.7
2017-Nov-16 19:30N 29°44' W 095°02'4 6.1
2017-Nov-16 18:54N 29°46' W 095°05'3 6.3
2017-Nov-16 18:24N 29°44' W 095°08'3 5.7
2017-Nov-16 17:53N 29°45' W 095°11'2 5.9
2017-Nov-16 17:30N 29°44' W 095°14'0 0.3
2017-Nov-16 16:58N 29°44' W 095°14'0 0.1
2017-Nov-16 16:29N 29°44' W 095°14'0 0.0
2017-Nov-16 15:59N 29°44' W 095°14'0 0.0
2017-Nov-16 15:29N 29°44' W 095°14'0 0.0
2017-Nov-16 14:59N 29°44' W 095°14'0 0.0
2017-Nov-16 14:29N 29°44' W 095°14'0 0.0
2017-Nov-16 13:53N 29°44' W 095°14'0 0.0
2017-Nov-16 13:30N 29°44' W 095°14'0 0.0
2017-Nov-16 13:00N 29°44' W 095°14'0 0.0
2017-Nov-16 12:29N 29°44' W 095°14'0 0.0
2017-Nov-16 12:00N 29°44' W 095°14'0 0.0
2017-Nov-16 11:30N 29°44' W 095°14'0 0.0
2017-Nov-16 11:00N 29°44' W 095°14'0 0.0
2017-Nov-16 10:30N 29°44' W 095°14'0 0.0
2017-Nov-16 10:00N 29°44' W 095°14'0 0.0
2017-Nov-16 09:29N 29°44' W 095°14'0 0.0
2017-Nov-16 09:00N 29°44' W 095°14'0 0.0
2017-Nov-16 08:25N 29°44' W 095°14'0 0.0
2017-Nov-16 08:00N 29°44' W 095°14'0 0.0
2017-Nov-16 07:30N 29°44' W 095°14'0 0.0
2017-Nov-16 07:00N 29°44' W 095°14'0 0.0
2017-Nov-16 06:25N 29°44' W 095°14'0 0.0
2017-Nov-16 06:00N 29°44' W 095°14'0 0.0
2017-Nov-16 05:30N 29°44' W 095°14'0 0.0
2017-Nov-16 05:00N 29°44' W 095°14'0 0.0
2017-Nov-16 04:30N 29°44' W 095°14'0 0.0
2017-Nov-16 03:59N 29°44' W 095°14'0 0.0
2017-Nov-16 03:29N 29°44' W 095°14'0 0.0
2017-Nov-16 03:00N 29°44' W 095°14'0 0.0
2017-Nov-16 02:30N 29°44' W 095°14'0 0.0
2017-Nov-16 02:00N 29°44' W 095°14'0 0.0
2017-Nov-16 01:29N 29°44' W 095°14'0 0.0
2017-Nov-16 01:00N 29°44' W 095°14'0 0.0
2017-Nov-16 00:29N 29°44' W 095°14'0 0.0
2017-Nov-15 20:15N 29°44' W 095°14'0 0.0
2017-Nov-15 19:56N 29°44' W 095°14'1 2.2
2017-Nov-15 19:29N 29°44' W 095°13'1 0.3
2017-Nov-15 16:19N 29°44' W 095°14'0 1.0
2017-Nov-15 15:57N 29°43' W 095°14'1 1.8
2017-Nov-15 15:30N 29°44' W 095°13'1 2.7
2017-Nov-15 14:58N 29°44' W 095°12'1 1.1
2017-Nov-15 14:30N 29°45' W 095°12'3 5.2
2017-Nov-15 13:57N 29°44' W 095°08'5 3.7
2017-Nov-15 12:33N 29°47' W 095°04'  
2017-Nov-12 12:55N 29°47' W 095°06'0 0.0
2017-Nov-12 12:30N 29°47' W 095°06'0 0.0
2017-Nov-12 12:00N 29°47' W 095°06'0 0.0
2017-Nov-12 11:29N 29°47' W 095°06'0 0.0
2017-Nov-12 10:51N 29°47' W 095°06'0 0.0
2017-Nov-12 10:15N 29°47' W 095°06'0 0.0
2017-Nov-12 09:58N 29°47' W 095°06'0 0.0
2017-Nov-12 06:16N 29°47' W 095°06'0 0.0
2017-Nov-12 05:46N 29°47' W 095°06'0 0.0
2017-Nov-12 05:26N 29°47' W 095°06'0 0.0
2017-Nov-12 04:59N 29°47' W 095°06'0 0.0
2017-Nov-12 03:55N 29°47' W 095°06'0 0.0
2017-Nov-12 03:29N 29°47' W 095°06'0 0.0
2017-Nov-10 09:48N 29°47' W 095°06'  
2017-Nov-07 05:26N 29°46' W 095°04'3 5.6
2017-Nov-07 04:52N 29°44' W 095°02'2 5.1
2017-Nov-07 04:30N 29°42' W 095°01'3 6.3
2017-Nov-07 04:00N 29°40' W 094°58'3 6.7
2017-Nov-07 03:30N 29°36' W 094°57'3 6.7
2017-Nov-07 03:00N 29°34' W 094°55'  
Track history (hours):
 
Tides and Currents Weather Stations Pressure Air Temp Water Temp Dewpoint Dewpoint Depression Visibility Wind Speed Wind Dir Waves Ship Positions

Inez Cenac

Owner: Cenac Marine Services, Houma, LA. More information available from US FCC via Universal Licensing System and Coast Guard Vessel Documentation Center.

Last reported at 2017-Nov-16 21:40 UTC. Time now 2017-Nov-21 23:22 UTC.
Position N 29°31' W 094°53'.

Length 22 m; draft 2.4 m.

Type: Tug. MMSI: 367679030.

Date/timePositionNaut miles runAvg speedWind from/ knotsBaromVisibWave heightAir tempDewpointWater temp
2017-Nov-16 21:40N 29°31' W 094°53'1 6.7
2017-Nov-16 21:30N 29°32' W 094°54'3 6.4
2017-Nov-16 21:00N 29°34' W 094°56'4 7.1
2017-Nov-16 20:30N 29°38' W 094°58'4 7.4
2017-Nov-16 20:00N 29°41' W 094°59'3 6.7
2017-Nov-16 19:30N 29°44' W 095°02'4 6.1
2017-Nov-16 18:54N 29°46' W 095°05'3 6.3
2017-Nov-16 18:24N 29°44' W 095°08'3 5.7
2017-Nov-16 17:53N 29°45' W 095°11'2 5.9
2017-Nov-16 17:30N 29°44' W 095°14'0 0.3
2017-Nov-16 16:58N 29°44' W 095°14'0 0.1
2017-Nov-16 16:29N 29°44' W 095°14'0 0.0
2017-Nov-16 15:59N 29°44' W 095°14'0 0.0
2017-Nov-16 15:29N 29°44' W 095°14'0 0.0
2017-Nov-16 14:59N 29°44' W 095°14'0 0.0
2017-Nov-16 14:29N 29°44' W 095°14'0 0.0
2017-Nov-16 13:53N 29°44' W 095°14'0 0.0
2017-Nov-16 13:30N 29°44' W 095°14'0 0.0
2017-Nov-16 13:00N 29°44' W 095°14'0 0.0
2017-Nov-16 12:29N 29°44' W 095°14'0 0.0
2017-Nov-16 12:00N 29°44' W 095°14'0 0.0
2017-Nov-16 11:30N 29°44' W 095°14'0 0.0
2017-Nov-16 11:00N 29°44' W 095°14'0 0.0
2017-Nov-16 10:30N 29°44' W 095°14'0 0.0
2017-Nov-16 10:00N 29°44' W 095°14'0 0.0
2017-Nov-16 09:29N 29°44' W 095°14'0 0.0
2017-Nov-16 09:00N 29°44' W 095°14'0 0.0
2017-Nov-16 08:25N 29°44' W 095°14'0 0.0
2017-Nov-16 08:00N 29°44' W 095°14'0 0.0
2017-Nov-16 07:30N 29°44' W 095°14'0 0.0
2017-Nov-16 07:00N 29°44' W 095°14'0 0.0
2017-Nov-16 06:25N 29°44' W 095°14'0 0.0
2017-Nov-16 06:00N 29°44' W 095°14'0 0.0
2017-Nov-16 05:30N 29°44' W 095°14'0 0.0
2017-Nov-16 05:00N 29°44' W 095°14'0 0.0
2017-Nov-16 04:30N 29°44' W 095°14'0 0.0
2017-Nov-16 03:59N 29°44' W 095°14'0 0.0
2017-Nov-16 03:29N 29°44' W 095°14'0 0.0
2017-Nov-16 03:00N 29°44' W 095°14'0 0.0
2017-Nov-16 02:30N 29°44' W 095°14'0 0.0
2017-Nov-16 02:00N 29°44' W 095°14'0 0.0
2017-Nov-16 01:29N 29°44' W 095°14'0 0.0
2017-Nov-16 01:00N 29°44' W 095°14'0 0.0
2017-Nov-16 00:29N 29°44' W 095°14'0 0.0
2017-Nov-15 20:15N 29°44' W 095°14'0 0.0
2017-Nov-15 19:56N 29°44' W 095°14'1 2.2
2017-Nov-15 19:29N 29°44' W 095°13'1 0.3
2017-Nov-15 16:19N 29°44' W 095°14'0 1.0
2017-Nov-15 15:57N 29°43' W 095°14'1 1.8
2017-Nov-15 15:30N 29°44' W 095°13'1 2.7
2017-Nov-15 14:58N 29°44' W 095°12'1 1.1
2017-Nov-15 14:30N 29°45' W 095°12'3 5.2
2017-Nov-15 13:57N 29°44' W 095°08'5 3.7
2017-Nov-15 12:33N 29°47' W 095°04'  
2017-Nov-12 12:55N 29°47' W 095°06'0 0.0
2017-Nov-12 12:30N 29°47' W 095°06'0 0.0
2017-Nov-12 12:00N 29°47' W 095°06'0 0.0
2017-Nov-12 11:29N 29°47' W 095°06'0 0.0
2017-Nov-12 10:51N 29°47' W 095°06'0 0.0
2017-Nov-12 10:15N 29°47' W 095°06'0 0.0
2017-Nov-12 09:58N 29°47' W 095°06'0 0.0
2017-Nov-12 06:16N 29°47' W 095°06'0 0.0
2017-Nov-12 05:46N 29°47' W 095°06'0 0.0
2017-Nov-12 05:26N 29°47' W 095°06'0 0.0
2017-Nov-12 04:59N 29°47' W 095°06'0 0.0
2017-Nov-12 03:55N 29°47' W 095°06'0 0.0
2017-Nov-12 03:29N 29°47' W 095°06'0 0.0
2017-Nov-10 09:48N 29°47' W 095°06'  
2017-Nov-07 05:26N 29°46' W 095°04'3 5.6
2017-Nov-07 04:52N 29°44' W 095°02'2 5.1
2017-Nov-07 04:30N 29°42' W 095°01'3 6.3
2017-Nov-07 04:00N 29°40' W 094°58'3 6.7
2017-Nov-07 03:30N 29°36' W 094°57'3 6.7
2017-Nov-07 03:00N 29°34' W 094°55'  

Dump ship's entire track history